WetterOnline ( http://www.wetteronline.de )

Wetter aktuell Lübeck

Aktuelles Wetter: Pelzerhaken/Neustadt i.H. (2m)

6-stündlich | Neueste Meldungen
Ortszeit Temperatur Wetter
Mi, 19.09. 8:00 15.5° C wolkig
Mi, 19.09. 2:00 16.7° C wolkenlos
Di, 18.09. 20:00 20.5° C leicht bewölkt
Di, 18.09. 14:00 23.9° C fast wolkenlos
Di, 18.09. 8:00 11.2° C leicht bewölkt
Di, 18.09. 2:00 10.2° C -
Mo, 17.09. 20:00 15.5° C -
Mo, 17.09. 14:00 21.5° C leicht bewölkt
Ortszeit Temperatur Wetter
Mi, 19.09. 12:00 21.3° C leicht bewölkt
Mi, 19.09. 11:50 21.3° C leicht bewölkt
Mi, 19.09. 11:40 20.4° C leicht bewölkt
Mi, 19.09. 11:30 20.0° C leicht bewölkt
Mi, 19.09. 11:20 20.0° C leicht bewölkt
Mi, 19.09. 11:10 19.9° C leicht bewölkt
Mi, 19.09. 11:00 19.3° C fast wolkenlos
Mi, 19.09. 10:30 18.7° C leicht bewölkt
Mi, 19.09. 10:00 17.5° C wolkig
Mi, 19.09. 9:30 17.5° C leicht bewölkt
Mi, 19.09. 9:00 16.4° C wolkig
Ortszeit Relative Feuchte Sichtweite
Mi, 19.09. 8:00 88% 21 km
Mi, 19.09. 2:00 86% 22 km
Di, 18.09. 20:00 72% 35 km
Di, 18.09. 14:00 56% 23 km
Di, 18.09. 8:00 95% 22 km
Di, 18.09. 2:00 97% 24 km
Mo, 17.09. 20:00 78% 55 km
Mo, 17.09. 14:00 60% 26 km
Ortszeit Relative Feuchte Sichtweite
Mi, 19.09. 12:00 70% 28 km
Mi, 19.09. 11:50 70% -
Mi, 19.09. 11:40 74% -
Mi, 19.09. 11:30 75% 28 km
Mi, 19.09. 11:20 75% -
Mi, 19.09. 11:10 73% -
Mi, 19.09. 11:00 73% 23 km
Mi, 19.09. 10:30 77% 18 km
Mi, 19.09. 10:00 82% 17 km
Mi, 19.09. 9:30 82% 14 km
Mi, 19.09. 9:00 87% 17 km
Ortszeit Niederschlagsmenge Niederschlagsart
Mi, 19.09. 8:00 0.0 l/m2 in 12 Std. -
Mi, 19.09. 2:00 0.0 l/m2 in 6 Std. -
Di, 18.09. 20:00 0.0 l/m2 in 12 Std. -
Di, 18.09. 14:00 0.0 l/m2 in 6 Std. -
Di, 18.09. 8:00 0.0 l/m2 in 12 Std. -
Di, 18.09. 2:00 0.0 l/m2 in 6 Std. -
Mo, 17.09. 20:00 0.0 l/m2 in 3 Std. -
Mo, 17.09. 14:00 0.0 l/m2 in 3 Std. -
Ortszeit Niederschlagsmenge Niederschlagsart
Mi, 19.09. 12:00 0.0 l/m2 in 1 Std. -
Mi, 19.09. 11:50 keine Meldung -
Mi, 19.09. 11:40 keine Meldung -
Mi, 19.09. 11:30 0.0 l/m2 in 1 Std. -
Mi, 19.09. 11:20 keine Meldung -
Mi, 19.09. 11:10 keine Meldung -
Mi, 19.09. 11:00 0.0 l/m2 in 1 Std. -
Mi, 19.09. 10:30 0.0 l/m2 in 1 Std. -
Mi, 19.09. 10:00 0.0 l/m2 in 1 Std. -
Mi, 19.09. 9:30 0.0 l/m2 in 1 Std. -
Mi, 19.09. 9:00 0.0 l/m2 in 1 Std. -
Ortszeit Stärke Spitze Richtung
km/h Bft. km/h Grad Sektor
Mi, 19.09. 8:00 11 2 25 230° SW
Mi, 19.09. 2:00 11 2 32 230° SW
Di, 18.09. 20:00 11 2 32 180° S
Di, 18.09. 14:00 18 3 22 170° S
Di, 18.09. 8:00 11 2 15 190° S
Di, 18.09. 2:00 4 1 7 220° SW
Mo, 17.09. 20:00 6 1 24 240° SW
Mo, 17.09. 14:00 13 3 26 220° SW
Ortszeit Stärke Spitze Richtung
km/h Bft. km/h Grad Sektor
Mi, 19.09. 12:00 14 3 22 200° S
Mi, 19.09. 11:50 14 3 - 200° S
Mi, 19.09. 11:40 11 2 - 210° SW
Mi, 19.09. 11:30 11 2 22 210° SW
Mi, 19.09. 11:20 11 2 - 210° SW
Mi, 19.09. 11:10 11 2 - 220° SW
Mi, 19.09. 11:00 14 3 25 230° SW
Mi, 19.09. 10:30 13 3 22 240° SW
Mi, 19.09. 10:00 13 3 24 220° SW
Mi, 19.09. 9:30 14 3 25 220° SW
Mi, 19.09. 9:00 11 2 22 220° SW
Ortszeit Untergrenze Bedeckung Gattung
total tief tief mittel hoch
Mi, 19.09. 8:00 6600 m 6/8 3/8 - - -
Mi, 19.09. 2:00 - 0/8 0/8 - - -
Di, 18.09. 20:00 2700 m 2/8 2/8 - - -
Di, 18.09. 14:00 10500 m 1/8 0/8 - - -
Di, 18.09. 8:00 10500 m 3/8 0/8 - - -
Di, 18.09. 2:00 - - - - - -
Mo, 17.09. 20:00 - - - - - -
Mo, 17.09. 14:00 9000 m 8/8 0/8 - - -
Ortszeit Bedeckungsgrad in Achtel und Wolkenuntergrenze
Mi, 19.09. 12:00 1(6600m)
Mi, 19.09. 11:50 1(6600m) 2(7800m)
Mi, 19.09. 11:40 1(6600m) 4(7800m)
Mi, 19.09. 11:30 3(6600m) 3(6600m)
Mi, 19.09. 11:20 3(6600m)
Mi, 19.09. 11:10 3(6600m)
Mi, 19.09. 11:00 1(6900m)
Mi, 19.09. 10:30 1(8700m) 4(9000m)
Mi, 19.09. 10:00 6(6900m) 7(9000m) 8(9000m)
Mi, 19.09. 9:30 6(7800m) 6(9000m)
Mi, 19.09. 9:00 4(6600m) 8(9000m) 8(9000m)
Ortszeit Luftdruck NN (hPa) Tendenz (hPa in 3 Std.)
Mi, 19.09. 8:00 1016 + 0,9
Mi, 19.09. 2:00 1014 + 0,9
Di, 18.09. 20:00 1010 + 0,1
Di, 18.09. 14:00 1011 - 1,9
Di, 18.09. 8:00 1014 - 1,0
Di, 18.09. 2:00 1016 - 1,1
Mo, 17.09. 20:00 1017 - 0,5
Mo, 17.09. 14:00 1018 - 0,9
Ortszeit Luftdruck NN (hPa) Tendenz (hPa in 3 Std.)
Mi, 19.09. 12:00 1016 + 0,1
Mi, 19.09. 11:50 1016 keine Meldung
Mi, 19.09. 11:40 1016 keine Meldung
Mi, 19.09. 11:30 1016 0,0
Mi, 19.09. 11:20 1016 keine Meldung
Mi, 19.09. 11:10 1016 keine Meldung
Mi, 19.09. 11:00 1016 0,0
Mi, 19.09. 10:30 1016 + 0,2
Mi, 19.09. 10:00 1016 + 0,3
Mi, 19.09. 9:30 1016 + 0,5
Mi, 19.09. 9:00 1016 + 0,6
Ortszeit Schneehöhe (cm)
Mi, 19.09. 8:00 0
Mi, 19.09. 2:00 0
Di, 18.09. 20:00 0
Di, 18.09. 14:00 0
Di, 18.09. 8:00 0
Di, 18.09. 2:00 0
Mo, 17.09. 20:00 0
Mo, 17.09. 14:00 0
Ortszeit Schneehöhe (cm)
Mi, 19.09. 12:00 0
Mi, 19.09. 11:50 0
Mi, 19.09. 11:40 0
Mi, 19.09. 11:30 0
Mi, 19.09. 11:20 0
Mi, 19.09. 11:10 0
Mi, 19.09. 11:00 0
Mi, 19.09. 10:30 0
Mi, 19.09. 10:00 0
Mi, 19.09. 9:30 0
Mi, 19.09. 9:00 0
Link zu dieser Seite / Seite empfehlen

Das Wetter in ...